Time;durP1;ratioP1;P1;durP2;ratioP2;P2;SDS_P1;SDS_P2;PMS_P1;PMS_P2;Temp;Humidity;BMP_temperature;BMP_pressure;BME280_temperature;BME280_humidity;BME280_pressure;Samples;Min_cycle;Max_cycle;Signal;HPM_P1;HPM_P2
2021/11/18 00:00:51;;;;;;;20.13;10.98;;;6.20;82.70;;;;;;4935743;29;20063;-86
2021/11/18 00:03:19;;;;;;;19.85;11.35;;;6.20;82.70;;;;;;4935618;29;20460;-86
2021/11/18 00:05:47;;;;;;;21.33;10.73;;;6.20;82.70;;;;;;4934020;29;20052;-85
2021/11/18 00:08:15;;;;;;;23.88;11.07;;;6.20;82.70;;;;;;4934090;29;20539;-85
2021/11/18 00:10:51;;;;;;;25.27;11.20;;;6.20;82.70;;;;;;4933801;29;20436;-85
2021/11/18 00:13:21;;;;;;;19.05;9.60;;;6.20;82.70;;;;;;4919984;29;20055;-86
2021/11/18 00:15:49;;;;;;;20.63;10.43;;;6.20;82.70;;;;;;4935278;29;20421;-85
2021/11/18 00:18:20;;;;;;;22.05;10.95;;;6.20;82.70;;;;;;4932899;29;20071;-85
2021/11/18 00:20:53;;;;;;;18.38;9.80;;;6.20;82.70;;;;;;4933921;29;20060;-86
2021/11/18 00:23:21;;;;;;;23.17;9.55;;;6.20;82.70;;;;;;4931934;29;20307;-85
2021/11/18 00:25:48;;;;;;;21.90;9.77;;;6.20;82.70;;;;;;4933474;29;20051;-86
2021/11/18 00:28:16;;;;;;;17.27;9.60;;;6.20;82.70;;;;;;4933838;29;20066;-86
2021/11/18 00:30:43;;;;;;;16.05;8.90;;;6.20;82.70;;;;;;4935879;29;20051;-86
2021/11/18 00:33:10;;;;;;;20.92;9.05;;;6.20;82.70;;;;;;4934294;29;20055;-85
2021/11/18 00:35:38;;;;;;;17.63;9.00;;;6.10;82.70;;;;;;4933476;29;20051;-87
2021/11/18 00:38:05;;;;;;;18.98;8.68;;;6.20;82.70;;;;;;4933579;29;20095;-86
2021/11/18 00:40:35;;;;;;;16.60;8.93;;;6.20;82.70;;;;;;4933352;29;20051;-86
2021/11/18 00:43:06;;;;;;;21.15;9.50;;;6.10;82.70;;;;;;4933646;29;20052;-86
2021/11/18 00:45:33;;;;;;;18.33;8.80;;;6.10;82.70;;;;;;4935507;29;20055;-85
2021/11/18 00:48:00;;;;;;;20.45;8.90;;;6.10;82.70;;;;;;4933372;29;20055;-85
2021/11/18 00:50:34;;;;;;;18.38;8.77;;;6.10;82.80;;;;;;4933413;29;20056;-86
2021/11/18 00:53:02;;;;;;;16.15;9.07;;;6.10;82.80;;;;;;4933261;29;20572;-85
2021/11/18 00:55:31;;;;;;;21.70;8.73;;;6.10;82.80;;;;;;4932800;29;20123;-85
2021/11/18 00:57:58;;;;;;;21.75;8.55;;;6.10;82.80;;;;;;4933342;29;20055;-85
2021/11/18 01:00:32;;;;;;;22.10;7.90;;;6.10;82.80;;;;;;4935203;29;20359;-86
2021/11/18 01:03:02;;;;;;;15.32;7.97;;;6.10;82.80;;;;;;4932029;29;20043;-86
2021/11/18 01:05:32;;;;;;;16.33;8.30;;;6.00;82.80;;;;;;4933033;29;20460;-85
2021/11/18 01:08:00;;;;;;;20.90;8.25;;;6.10;82.80;;;;;;4932929;29;20051;-86
2021/11/18 01:10:36;;;;;;;22.02;8.52;;;6.10;82.90;;;;;;4933101;29;20098;-86
2021/11/18 01:13:05;;;;;;;22.42;8.75;;;6.00;82.90;;;;;;4931984;29;20123;-86
2021/11/18 01:15:35;;;;;;;13.82;7.78;;;6.10;82.90;;;;;;4933700;29;20051;-86
2021/11/18 01:18:03;;;;;;;20.38;8.52;;;6.00;82.90;;;;;;4932766;29;20048;-85
2021/11/18 01:20:31;;;;;;;17.80;8.05;;;6.10;82.90;;;;;;4932939;29;20055;-85
2021/11/18 01:23:01;;;;;;;17.70;8.25;;;6.00;82.90;;;;;;4932481;29;20051;-85
2021/11/18 01:25:29;;;;;;;18.10;8.27;;;6.00;82.90;;;;;;4932818;29;20066;-85
2021/11/18 01:27:56;;;;;;;17.10;7.88;;;6.00;82.90;;;;;;4931884;29;20052;-85
2021/11/18 01:30:26;;;;;;;17.40;7.57;;;6.00;82.90;;;;;;4932568;29;20572;-85
2021/11/18 01:32:54;;;;;;;19.13;8.23;;;6.00;82.90;;;;;;4932590;29;20110;-86
2021/11/18 01:35:21;;;;;;;16.55;8.30;;;6.00;82.90;;;;;;4931444;29;20473;-86
2021/11/18 01:37:49;;;;;;;17.35;8.18;;;6.00;82.90;;;;;;4932311;29;20040;-85
2021/11/18 01:40:19;;;;;;;19.63;8.43;;;6.00;83.00;;;;;;4931318;29;20455;-86
2021/11/18 01:42:48;;;;;;;24.25;8.63;;;6.00;82.90;;;;;;4933717;29;20107;-85
2021/11/18 01:45:16;;;;;;;19.17;8.45;;;6.00;83.00;;;;;;4933258;29;20059;-85
2021/11/18 01:47:45;;;;;;;19.65;7.85;;;6.00;82.90;;;;;;4932433;29;20132;-85
2021/11/18 01:50:15;;;;;;;18.77;8.23;;;6.00;83.00;;;;;;4932225;29;20568;-85
2021/11/18 01:52:45;;;;;;;21.38;8.38;;;6.00;83.00;;;;;;4930779;29;20039;-86
2021/11/18 01:55:13;;;;;;;18.67;7.63;;;6.00;83.00;;;;;;4916906;29;20513;-85
2021/11/18 01:57:40;;;;;;;17.35;7.85;;;6.00;83.00;;;;;;4930421;29;20056;-85
2021/11/18 02:00:12;;;;;;;21.98;8.35;;;5.90;83.00;;;;;;4932196;29;20059;-86
2021/11/18 02:02:40;;;;;;;16.80;7.88;;;6.00;83.00;;;;;;4932095;29;20473;-85
2021/11/18 02:05:11;;;;;;;17.77;7.95;;;6.00;83.00;;;;;;4931979;29;20059;-85
2021/11/18 02:07:40;;;;;;;18.52;8.65;;;5.90;83.00;;;;;;4931803;29;20437;-85
2021/11/18 02:10:09;;;;;;;16.67;8.25;;;6.00;83.10;;;;;;4932052;29;20512;-85
2021/11/18 02:12:36;;;;;;;19.00;7.65;;;6.00;83.10;;;;;;4934087;29;20054;-85
2021/11/18 02:15:14;;;;;;;19.13;8.45;;;6.00;83.10;;;;;;4931900;29;20047;-86
2021/11/18 02:17:41;;;;;;;17.05;8.35;;;5.90;83.10;;;;;;4930610;29;20074;-85
2021/11/18 02:20:18;;;;;;;16.20;7.85;;;6.00;83.00;;;;;;4930505;29;20450;-85
2021/11/18 02:22:45;;;;;;;18.48;7.85;;;5.90;83.00;;;;;;4931704;29;20452;-85
2021/11/18 02:25:13;;;;;;;19.42;8.13;;;5.90;83.00;;;;;;4932015;29;20048;-85
2021/11/18 02:27:40;;;;;;;13.95;7.50;;;5.90;83.00;;;;;;4929952;29;20052;-85
2021/11/18 02:30:08;;;;;;;17.35;7.25;;;5.90;83.00;;;;;;4931753;29;20056;-85
2021/11/18 02:32:40;;;;;;;17.00;8.68;;;5.90;83.00;;;;;;4931641;29;20520;-85
2021/11/18 02:35:15;;;;;;;12.05;7.10;;;5.90;83.00;;;;;;4931348;29;20055;-86
2021/11/18 02:37:43;;;;;;;19.15;7.50;;;5.90;83.00;;;;;;4931678;29;20405;-85
2021/11/18 02:40:12;;;;;;;20.13;7.78;;;5.90;82.90;;;;;;4931879;29;20072;-85
2021/11/18 02:42:40;;;;;;;17.25;7.70;;;5.90;82.90;;;;;;4929671;29;20047;-85
2021/11/18 02:45:13;;;;;;;14.45;7.57;;;5.90;82.90;;;;;;4931839;29;20478;-86
2021/11/18 02:47:40;;;;;;;18.85;7.80;;;5.90;82.80;;;;;;4938019;29;20090;-85
2021/11/18 02:50:10;;;;;;;17.23;7.68;;;5.90;82.80;;;;;;4937510;29;20047;-85
2021/11/18 02:52:38;;;;;;;16.98;7.60;;;5.80;82.80;;;;;;4938003;29;20055;-85
2021/11/18 02:55:13;;;;;;;15.15;7.75;;;5.80;82.70;;;;;;4937666;29;20063;-85
2021/11/18 02:57:40;;;;;;;16.67;7.15;;;5.70;82.70;;;;;;4936122;29;20541;-85
2021/11/18 03:00:15;;;;;;;15.35;7.75;;;5.70;82.70;;;;;;4937701;29;20052;-85
2021/11/18 03:02:42;;;;;;;13.95;7.55;;;5.70;82.70;;;;;;4937778;29;20059;-85
2021/11/18 03:05:10;;;;;;;15.00;7.47;;;5.70;82.70;;;;;;4936073;29;20050;-85
2021/11/18 03:07:38;;;;;;;20.48;8.73;;;5.70;82.60;;;;;;4937860;29;20050;-85
2021/11/18 03:10:08;;;;;;;13.40;7.40;;;5.70;82.60;;;;;;4937837;29;20111;-86
2021/11/18 03:12:36;;;;;;;13.48;6.60;;;5.70;82.60;;;;;;4939840;29;20055;-87
2021/11/18 03:15:06;;;;;;;18.13;7.68;;;5.60;82.60;;;;;;4937677;29;20043;-86
2021/11/18 03:17:33;;;;;;;13.70;6.82;;;5.60;82.60;;;;;;4937611;29;20060;-85
2021/11/18 03:20:00;;;;;;;16.10;7.30;;;5.60;82.60;;;;;;4937414;29;20055;-85
2021/11/18 03:22:27;;;;;;;14.65;6.85;;;5.60;82.50;;;;;;4937697;29;20047;-85
2021/11/18 03:24:54;;;;;;;16.20;7.60;;;5.50;82.50;;;;;;4938190;29;20051;-85
2021/11/18 03:27:20;;;;;;;15.88;6.78;;;5.50;82.50;;;;;;4939387;29;20055;-85
2021/11/18 03:29:47;;;;;;;15.60;7.47;;;5.50;82.50;;;;;;4937522;29;20052;-85
2021/11/18 03:32:14;;;;;;;16.98;7.57;;;5.50;82.50;;;;;;4937488;29;20428;-85
2021/11/18 03:34:41;;;;;;;18.58;7.85;;;5.50;82.50;;;;;;4937138;29;20054;-85
2021/11/18 03:37:09;;;;;;;15.13;6.70;;;5.50;82.50;;;;;;4936912;29;20056;-85
2021/11/18 03:39:38;;;;;;;15.02;6.85;;;5.50;82.50;;;;;;4939224;29;20465;-85
2021/11/18 03:42:08;;;;;;;16.95;7.60;;;5.40;82.50;;;;;;4937318;29;20059;-86
2021/11/18 03:44:36;;;;;;;14.23;7.43;;;5.40;82.50;;;;;;4936244;29;20055;-87
2021/11/18 03:47:07;;;;;;;11.93;7.07;;;5.50;82.60;;;;;;4937400;29;20048;-86
2021/11/18 03:49:34;;;;;;;14.00;7.00;;;5.40;82.60;;;;;;4937162;29;20064;-86
2021/11/18 03:52:04;;;;;;;14.93;8.05;;;5.40;82.60;;;;;;4937536;29;20240;-85
2021/11/18 03:54:33;;;;;;;14.13;6.75;;;5.40;82.60;;;;;;4939102;29;20111;-85
2021/11/18 03:57:00;;;;;;;18.65;8.30;;;5.40;82.70;;;;;;4935254;29;20413;-85
2021/11/18 03:59:31;;;;;;;21.27;9.45;;;5.40;82.80;;;;;;4934289;29;20052;-87
2021/11/18 04:01:59;;;;;;;17.30;7.82;;;5.40;82.80;;;;;;4934022;29;20056;-85
2021/11/18 04:04:33;;;;;;;17.48;8.25;;;5.40;82.90;;;;;;4934654;29;20051;-86
2021/11/18 04:07:00;;;;;;;16.80;8.20;;;5.40;82.90;;;;;;4934287;29;20083;-87
2021/11/18 04:09:27;;;;;;;17.85;8.10;;;5.40;83.00;;;;;;4936193;29;20055;-85
2021/11/18 04:11:59;;;;;;;19.00;7.88;;;5.40;83.00;;;;;;4934224;29;20115;-85
2021/11/18 04:14:29;;;;;;;20.70;8.60;;;5.50;83.10;;;;;;4934022;29;20048;-86
2021/11/18 04:16:57;;;;;;;19.27;8.48;;;5.50;83.10;;;;;;4932251;29;20050;-86
2021/11/18 04:19:24;;;;;;;12.90;7.28;;;5.50;83.20;;;;;;4934030;29;20197;-86
2021/11/18 04:21:52;;;;;;;16.27;8.43;;;5.50;83.20;;;;;;4933841;29;20115;-86
2021/11/18 04:24:22;;;;;;;19.27;8.25;;;5.50;83.20;;;;;;4935275;29;20058;-86
2021/11/18 04:26:50;;;;;;;16.17;8.18;;;5.50;83.20;;;;;;4933834;29;20059;-86
2021/11/18 04:29:27;;;;;;;18.88;8.35;;;5.50;83.20;;;;;;4933651;29;20055;-86
2021/11/18 04:32:01;;;;;;;16.02;9.25;;;5.60;83.30;;;;;;4933442;29;20075;-85
2021/11/18 04:34:28;;;;;;;15.60;8.50;;;5.60;83.30;;;;;;4933779;29;20434;-85
2021/11/18 04:36:55;;;;;;;12.27;7.97;;;5.60;83.20;;;;;;4934615;29;20263;-85
2021/11/18 04:39:22;;;;;;;17.08;8.43;;;5.60;83.20;;;;;;4933413;29;20052;-85
2021/11/18 04:41:51;;;;;;;15.93;8.65;;;5.60;83.20;;;;;;4933535;29;20055;-85
2021/11/18 04:44:21;;;;;;;20.42;9.68;;;5.60;83.30;;;;;;4932249;29;20063;-84
2021/11/18 04:46:48;;;;;;;17.60;8.23;;;5.60;83.30;;;;;;4933103;29;20055;-87
2021/11/18 04:49:15;;;;;;;24.67;8.85;;;5.70;83.30;;;;;;4933423;29;20478;-86
2021/11/18 04:51:42;;;;;;;19.20;9.10;;;5.60;83.30;;;;;;4935729;29;20476;-86
2021/11/18 04:54:09;;;;;;;19.52;8.55;;;5.60;83.30;;;;;;4932568;29;20095;-86
2021/11/18 04:56:37;;;;;;;16.40;8.23;;;5.70;83.40;;;;;;4931760;29;20095;-85
2021/11/18 04:59:05;;;;;;;17.60;9.05;;;5.60;83.40;;;;;;4933354;29;20181;-85
2021/11/18 05:01:34;;;;;;;16.27;9.13;;;5.70;83.40;;;;;;4933002;29;20539;-85
2021/11/18 05:04:04;;;;;;;16.08;8.90;;;5.70;83.40;;;;;;4933231;29;20103;-85
2021/11/18 05:06:31;;;;;;;20.60;9.20;;;5.70;83.50;;;;;;4933957;29;20566;-85
2021/11/18 05:08:58;;;;;;;17.15;8.00;;;5.70;83.50;;;;;;4932891;29;20048;-85
2021/11/18 05:11:26;;;;;;;18.10;8.57;;;5.70;83.50;;;;;;4932984;29;20052;-85
2021/11/18 05:13:53;;;;;;;18.88;8.77;;;5.70;83.50;;;;;;4933068;29;20468;-86
2021/11/18 05:16:20;;;;;;;17.65;9.18;;;5.80;83.60;;;;;;4932783;29;20048;-85
2021/11/18 05:18:48;;;;;;;19.63;8.68;;;5.80;83.60;;;;;;4934208;29;20051;-85
2021/11/18 05:21:19;;;;;;;17.40;8.43;;;5.80;83.60;;;;;;4931642;29;20478;-85
2021/11/18 05:23:48;;;;;;;17.52;8.70;;;5.80;83.60;;;;;;4932805;29;20517;-85
2021/11/18 05:26:19;;;;;;;15.68;7.25;;;5.80;83.60;;;;;;4932659;29;20469;-85
2021/11/18 05:28:47;;;;;;;17.65;8.25;;;5.80;83.70;;;;;;4932744;29;20142;-85
2021/11/18 05:31:15;;;;;;;17.92;9.27;;;5.90;83.70;;;;;;4932821;29;20079;-85
2021/11/18 05:33:44;;;;;;;17.80;8.35;;;5.90;83.70;;;;;;4934837;29;20051;-86
2021/11/18 05:36:11;;;;;;;16.42;9.27;;;5.90;83.70;;;;;;4931735;29;20058;-85
2021/11/18 05:38:39;;;;;;;19.25;8.93;;;5.90;83.70;;;;;;4932604;29;20048;-86
2021/11/18 05:41:07;;;;;;;15.98;8.57;;;5.90;83.80;;;;;;4932513;29;20055;-85
2021/11/18 05:43:35;;;;;;;18.52;9.10;;;5.90;83.80;;;;;;4932247;29;20075;-86
2021/11/18 05:46:03;;;;;;;18.40;8.85;;;6.00;83.80;;;;;;4932463;29;20059;-85
2021/11/18 05:48:30;;;;;;;17.17;8.18;;;5.90;83.80;;;;;;4934404;29;20048;-85
2021/11/18 05:50:59;;;;;;;16.88;8.40;;;5.90;83.80;;;;;;4932314;29;20059;-85
2021/11/18 05:53:30;;;;;;;17.48;8.40;;;6.00;83.80;;;;;;4931078;29;20501;-86
2021/11/18 05:55:59;;;;;;;20.63;9.00;;;6.00;83.90;;;;;;4931902;29;20063;-85
2021/11/18 05:58:27;;;;;;;14.70;7.55;;;6.00;83.90;;;;;;4932180;29;20044;-85
2021/11/18 06:01:00;;;;;;;17.55;8.60;;;6.00;83.90;;;;;;4931110;29;20084;-86
2021/11/18 06:03:27;;;;;;;22.52;8.40;;;6.00;83.90;;;;;;4934178;29;20107;-85
2021/11/18 06:05:54;;;;;;;16.17;8.05;;;6.00;83.90;;;;;;4931871;29;20513;-85
2021/11/18 06:08:21;;;;;;;16.90;7.97;;;6.10;83.90;;;;;;4932096;29;20052;-85
2021/11/18 06:10:50;;;;;;;17.08;8.45;;;6.10;84.00;;;;;;4931949;29;20059;-85
2021/11/18 06:13:18;;;;;;;16.15;7.50;;;6.10;84.00;;;;;;4930638;29;20058;-85
2021/11/18 06:15:45;;;;;;;16.65;8.40;;;6.10;84.00;;;;;;4933546;29;20581;-86
2021/11/18 06:18:12;;;;;;;19.25;7.50;;;6.20;84.10;;;;;;4931192;29;20055;-85
2021/11/18 06:20:40;;;;;;;15.77;7.78;;;6.10;84.10;;;;;;4931408;29;20060;-85
2021/11/18 06:23:09;;;;;;;16.92;7.57;;;6.20;84.10;;;;;;4931850;29;20051;-86
2021/11/18 06:25:38;;;;;;;21.23;8.30;;;6.20;84.10;;;;;;4931899;29;20047;-85
2021/11/18 06:28:07;;;;;;;16.83;7.35;;;6.20;84.10;;;;;;4931462;29;20059;-86
2021/11/18 06:30:48;;;;;;;18.95;7.68;;;6.20;84.10;;;;;;4933693;29;20052;-85
2021/11/18 06:33:17;;;;;;;17.83;7.63;;;6.20;84.10;;;;;;4932695;29;20118;-85
2021/11/18 06:35:44;;;;;;;17.58;7.53;;;6.20;84.10;;;;;;4931523;29;20047;-85
2021/11/18 06:38:31;;;;;;;19.65;7.05;;;6.30;84.10;;;;;;4931893;29;20079;-86
2021/11/18 06:40:58;;;;;;;16.27;7.32;;;6.20;84.10;;;;;;4931643;29;20066;-85
2021/11/18 06:43:25;;;;;;;15.43;6.93;;;6.20;84.10;;;;;;4931222;29;20048;-85
2021/11/18 06:45:52;;;;;;;15.60;7.38;;;6.20;84.10;;;;;;4932553;29;20338;-85
2021/11/18 06:48:30;;;;;;;14.23;6.38;;;6.20;84.10;;;;;;4931714;29;20052;-85
2021/11/18 06:51:07;;;;;;;18.23;8.07;;;6.20;84.10;;;;;;4931569;29;20067;-85
2021/11/18 06:53:37;;;;;;;18.88;7.10;;;6.20;84.10;;;;;;4930116;29;20115;-86
2021/11/18 06:56:05;;;;;;;16.00;7.82;;;6.20;84.00;;;;;;4930918;29;20052;-85
2021/11/18 06:58:32;;;;;;;16.08;7.18;;;6.20;84.00;;;;;;4930472;29;20058;-85
2021/11/18 07:01:00;;;;;;;18.63;7.40;;;6.20;84.00;;;;;;4931606;29;20048;-85
2021/11/18 07:03:28;;;;;;;14.20;7.03;;;6.10;84.00;;;;;;4933545;29;20055;-86
2021/11/18 07:05:55;;;;;;;17.08;6.78;;;6.10;84.00;;;;;;4931278;29;20071;-85
2021/11/18 07:08:22;;;;;;;19.50;6.88;;;6.10;84.00;;;;;;4931475;29;20085;-85
2021/11/18 07:10:49;;;;;;;13.30;6.93;;;6.10;84.00;;;;;;4931066;29;20107;-85
2021/11/18 07:13:22;;;;;;;18.42;6.78;;;6.10;84.00;;;;;;4931483;29;20509;-87
2021/11/18 07:15:51;;;;;;;18.52;6.63;;;6.10;84.00;;;;;;4932563;29;20043;-87
2021/11/18 07:18:23;;;;;;;19.15;7.40;;;6.00;84.00;;;;;;4932632;29;20066;-87
2021/11/18 07:20:51;;;;;;;19.27;7.07;;;6.00;84.00;;;;;;4930089;29;20055;-87
2021/11/18 07:23:19;;;;;;;18.50;7.05;;;6.00;84.10;;;;;;4931223;29;20432;-86
2021/11/18 07:25:48;;;;;;;16.48;6.78;;;6.00;84.10;;;;;;4930977;29;20043;-86
2021/11/18 07:28:15;;;;;;;16.90;7.22;;;6.00;84.10;;;;;;4931377;29;20063;-85
2021/11/18 07:30:47;;;;;;;19.95;7.78;;;6.00;84.10;;;;;;4933307;29;20052;-85
2021/11/18 07:33:15;;;;;;;12.98;6.82;;;6.00;84.10;;;;;;4932801;29;20055;-85
2021/11/18 07:35:43;;;;;;;20.45;6.97;;;6.00;84.10;;;;;;4934646;29;20169;-85
2021/11/18 07:38:10;;;;;;;17.15;6.65;;;6.00;84.10;;;;;;4934685;29;20047;-85
2021/11/18 07:40:38;;;;;;;18.88;7.38;;;5.90;84.20;;;;;;4934635;29;20102;-85
2021/11/18 07:43:07;;;;;;;21.83;7.45;;;6.00;84.20;;;;;;4934713;29;20055;-86
2021/11/18 07:45:34;;;;;;;14.32;6.55;;;6.00;84.20;;;;;;4936806;29;20110;-85
2021/11/18 07:48:02;;;;;;;21.48;7.55;;;5.90;84.20;;;;;;4934641;29;20043;-86
2021/11/18 07:50:30;;;;;;;16.85;7.15;;;6.00;84.20;;;;;;4934502;29;20456;-85
2021/11/18 07:52:58;;;;;;;28.58;7.78;;;6.00;84.30;;;;;;4934612;29;20514;-85
2021/11/18 07:55:25;;;;;;;16.45;7.50;;;6.00;84.30;;;;;;4933994;29;20059;-86
2021/11/18 07:57:52;;;;;;;14.55;7.20;;;6.00;84.30;;;;;;4935270;29;20405;-85
2021/11/18 08:00:22;;;;;;;19.55;7.32;;;5.90;84.30;;;;;;4934640;29;20535;-85
2021/11/18 08:02:51;;;;;;;18.52;7.47;;;5.90;84.30;;;;;;4934347;29;20047;-86
2021/11/18 08:05:19;;;;;;;20.25;8.48;;;5.90;84.30;;;;;;4934154;29;20060;-85
2021/11/18 08:07:46;;;;;;;17.35;7.93;;;5.90;84.30;;;;;;4934292;29;20232;-85
2021/11/18 08:10:14;;;;;;;18.20;7.78;;;5.90;84.40;;;;;;4931951;29;20115;-85
2021/11/18 08:12:42;;;;;;;20.20;7.20;;;6.00;84.40;;;;;;4921919;29;20111;-85
2021/11/18 08:15:12;;;;;;;18.35;7.72;;;5.90;84.40;;;;;;4933731;29;20432;-85
2021/11/18 08:17:39;;;;;;;21.80;8.23;;;5.90;84.40;;;;;;4936687;29;20472;-86
2021/11/18 08:20:08;;;;;;;24.52;8.27;;;5.90;84.50;;;;;;4935076;29;20056;-86
2021/11/18 08:22:35;;;;;;;20.77;7.90;;;6.00;84.50;;;;;;4934966;29;20059;-86
2021/11/18 08:25:03;;;;;;;19.95;8.00;;;6.00;84.50;;;;;;4934736;29;20548;-86
2021/11/18 08:27:32;;;;;;;17.65;7.85;;;6.00;84.50;;;;;;4937024;29;20501;-85
2021/11/18 08:29:59;;;;;;;23.75;7.95;;;6.00;84.60;;;;;;4934459;29;20529;-85
2021/11/18 08:32:26;;;;;;;15.75;7.20;;;6.00;84.60;;;;;;4935375;29;20051;-85
2021/11/18 08:34:54;;;;;;;21.25;7.68;;;6.00;84.70;;;;;;4934906;29;20145;-86
2021/11/18 08:37:21;;;;;;;22.17;7.97;;;6.00;84.70;;;;;;4934317;29;20051;-85
2021/11/18 08:39:49;;;;;;;25.63;7.65;;;6.10;84.70;;;;;;4935979;29;20077;-85
2021/11/18 08:42:19;;;;;;;22.48;7.95;;;6.10;84.80;;;;;;4935631;29;20056;-85
2021/11/18 08:44:46;;;;;;;18.20;7.72;;;6.10;84.80;;;;;;4934016;29;20048;-85
2021/11/18 08:47:14;;;;;;;22.77;7.80;;;6.20;84.80;;;;;;4934752;29;20048;-85
2021/11/18 08:49:42;;;;;;;20.83;7.65;;;6.20;84.80;;;;;;4933509;29;20103;-85
2021/11/18 08:52:12;;;;;;;22.83;8.05;;;6.20;84.90;;;;;;4933837;29;20051;-85
2021/11/18 08:54:42;;;;;;;21.25;7.95;;;6.20;84.90;;;;;;4935460;29;20056;-85
2021/11/18 08:57:11;;;;;;;22.95;7.82;;;6.20;84.90;;;;;;4933177;29;20051;-85
2021/11/18 08:59:39;;;;;;;28.52;8.20;;;6.30;85.00;;;;;;4934210;29;20055;-85
2021/11/18 09:02:11;;;;;;;19.83;7.88;;;6.30;85.00;;;;;;4934141;29;20055;-85
2021/11/18 09:04:39;;;;;;;18.45;7.20;;;6.30;85.00;;;;;;4934377;29;20053;-85
2021/11/18 09:07:07;;;;;;;21.25;7.72;;;6.40;85.10;;;;;;4934171;29;20059;-85
2021/11/18 09:09:34;;;;;;;28.63;9.30;;;6.40;85.10;;;;;;4936347;29;20060;-85
2021/11/18 09:12:04;;;;;;;21.17;8.35;;;6.40;85.10;;;;;;4934159;29;20055;-85
2021/11/18 09:14:32;;;;;;;24.95;8.02;;;6.40;85.10;;;;;;4933906;29;20051;-85
2021/11/18 09:17:00;;;;;;;26.73;8.70;;;6.50;85.20;;;;;;4934220;29;20056;-86
2021/11/18 09:19:32;;;;;;;25.48;8.20;;;6.60;85.20;;;;;;4934377;29;20044;-85
2021/11/18 09:22:03;;;;;;;20.83;7.68;;;6.60;85.20;;;;;;4933474;29;20067;-85
2021/11/18 09:24:44;;;;;;;23.88;7.97;;;6.60;85.20;;;;;;4935958;29;20099;-86
2021/11/18 09:27:21;;;;;;;20.45;7.72;;;6.70;85.30;;;;;;4933431;29;20509;-85
2021/11/18 09:29:49;;;;;;;22.95;7.80;;;6.70;85.30;;;;;;4931520;29;20051;-85
2021/11/18 09:32:17;;;;;;;21.40;7.32;;;6.80;85.30;;;;;;4933790;29;20063;-85
2021/11/18 09:34:44;;;;;;;21.02;7.45;;;6.80;85.30;;;;;;4933957;29;20111;-86
2021/11/18 09:37:12;;;;;;;29.23;8.20;;;6.90;85.40;;;;;;4918258;29;20584;-85
2021/11/18 09:39:40;;;;;;;25.77;8.68;;;6.90;85.40;;;;;;4931833;29;20067;-85
2021/11/18 09:42:15;;;;;;;27.10;8.13;;;6.90;85.50;;;;;;4933755;29;20468;-86
2021/11/18 09:45:05;;;;;;;20.58;8.32;;;7.00;85.60;;;;;;4933713;29;20476;-86
2021/11/18 09:48:03;;;;;;;24.10;8.38;;;7.20;85.70;;;;;;4933863;29;20058;-86
2021/11/18 09:50:53;;;;;;;29.65;9.35;;;7.30;85.80;;;;;;4933026;29;20504;-85
2021/11/18 09:53:53;;;;;;;28.50;8.93;;;7.40;85.80;;;;;;4933578;29;20079;-86
2021/11/18 09:56:39;;;;;;;29.30;8.57;;;7.50;85.80;;;;;;4932477;29;20058;-86
2021/11/18 09:59:28;;;;;;;31.13;8.50;;;7.70;85.80;;;;;;4932982;29;20050;-86
2021/11/18 10:02:07;;;;;;;22.35;7.70;;;7.80;85.80;;;;;;4933477;29;20048;-85
2021/11/18 10:05:01;;;;;;;26.90;8.18;;;7.90;85.80;;;;;;4932977;29;20058;-86
2021/11/18 10:07:45;;;;;;;26.63;7.93;;;8.00;85.70;;;;;;4920471;29;20067;-85
2021/11/18 10:10:38;;;;;;;24.73;7.28;;;8.10;85.70;;;;;;4933638;29;20135;-86
2021/11/18 10:13:17;;;;;;;26.33;7.30;;;8.30;85.70;;;;;;4933087;29;20051;-85
2021/11/18 10:16:07;;;;;;;25.05;7.00;;;8.40;85.70;;;;;;4943420;29;20055;-86
2021/11/18 10:18:41;;;;;;;27.02;7.85;;;8.50;85.60;;;;;;4934029;29;20048;-85
2021/11/18 10:21:22;;;;;;;27.67;8.13;;;8.70;85.50;;;;;;4931217;29;20055;-85
2021/11/18 10:23:57;;;;;;;28.23;7.70;;;8.90;85.40;;;;;;4932957;29;20505;-86
2021/11/18 10:26:32;;;;;;;21.90;7.68;;;9.00;85.30;;;;;;4932886;29;20055;-85
2021/11/18 10:29:22;;;;;;;25.20;6.97;;;9.20;85.20;;;;;;4932917;29;20047;-86
2021/11/18 10:32:02;;;;;;;22.70;6.70;;;9.40;85.00;;;;;;4933149;29;20051;-86
2021/11/18 10:34:56;;;;;;;31.55;6.97;;;9.50;84.80;;;;;;4932584;29;20043;-86
2021/11/18 10:37:27;;;;;;;24.42;6.30;;;9.70;84.60;;;;;;4919332;29;20075;-85
2021/11/18 10:40:10;;;;;;;23.65;6.10;;;9.90;84.40;;;;;;4933513;29;20115;-85
2021/11/18 10:42:50;;;;;;;28.05;6.32;;;10.00;84.10;;;;;;4934180;29;20134;-85
2021/11/18 10:45:27;;;;;;;21.75;6.13;;;10.20;83.90;;;;;;4934169;29;20135;-84
2021/11/18 10:48:32;;;;;;;24.05;6.13;;;10.30;83.70;;;;;;4931331;29;20052;-86
2021/11/18 10:51:17;;;;;;;19.40;5.43;;;10.40;83.40;;;;;;4928879;29;20078;-85
2021/11/18 10:53:55;;;;;;;20.75;5.88;;;10.60;83.20;;;;;;4918891;29;20143;-85
2021/11/18 10:56:45;;;;;;;26.88;5.95;;;10.60;82.90;;;;;;4922793;29;20573;-85
2021/11/18 10:59:43;;;;;;;23.33;6.13;;;10.80;82.70;;;;;;4923106;29;20452;-85
2021/11/18 11:02:33;;;;;;;18.23;5.47;;;10.90;82.40;;;;;;4921222;29;20052;-86
2021/11/18 11:05:22;;;;;;;20.02;5.43;;;10.90;82.20;;;;;;4925972;28;20135;-86
2021/11/18 11:07:49;;;;;;;21.00;5.07;;;10.90;82.00;;;;;;4923267;29;20567;-86
2021/11/18 11:10:24;;;;;;;14.73;4.88;;;11.00;81.90;;;;;;4934275;29;20139;-85
2021/11/18 11:13:16;;;;;;;24.08;5.72;;;11.10;81.70;;;;;;4917249;29;20054;-86
2021/11/18 11:16:14;;;;;;;18.95;5.05;;;11.10;81.60;;;;;;4932710;29;20047;-85
2021/11/18 11:19:13;;;;;;;24.40;6.03;;;11.20;81.40;;;;;;4931352;29;20115;-85
2021/11/18 11:21:43;;;;;;;28.48;6.38;;;11.20;81.20;;;;;;4936389;29;20544;-86
2021/11/18 11:24:31;;;;;;;28.48;5.72;;;11.20;81.10;;;;;;4920039;29;20413;-85
2021/11/18 11:27:47;;;;;;;17.58;5.13;;;11.20;81.00;;;;;;4934572;29;20114;-85
2021/11/18 11:30:53;;;;;;;17.95;4.57;;;11.30;80.90;;;;;;4937037;29;20051;-86
2021/11/18 11:33:39;;;;;;;21.70;5.80;;;11.30;80.70;;;;;;4936695;29;20055;-85
2021/11/18 11:36:21;;;;;;;26.23;5.90;;;11.30;80.60;;;;;;4935884;29;20119;-85
2021/11/18 11:39:14;;;;;;;19.02;4.85;;;11.30;80.50;;;;;;4935873;29;20058;-85
2021/11/18 11:42:15;;;;;;;14.13;4.63;;;11.30;80.50;;;;;;4935675;29;20107;-86
2021/11/18 11:45:15;;;;;;;21.80;5.10;;;11.30;80.40;;;;;;4935536;29;20063;-84
2021/11/18 11:47:48;;;;;;;14.50;4.40;;;11.30;80.40;;;;;;4935493;29;20103;-85
2021/11/18 11:50:27;;;;;;;22.35;5.78;;;11.30;80.40;;;;;;4935377;29;20074;-86
2021/11/18 11:53:21;;;;;;;19.42;5.50;;;11.30;80.30;;;;;;4935616;29;20044;-85
2021/11/18 11:56:21;;;;;;;15.55;5.93;;;11.40;80.30;;;;;;4935295;29;20063;-84
2021/11/18 11:58:56;;;;;;;21.95;4.70;;;11.40;80.30;;;;;;4935584;29;20051;-85
2021/11/18 12:01:51;;;;;;;23.38;5.75;;;11.40;80.40;;;;;;4935225;29;20051;-85
2021/11/18 12:04:48;;;;;;;20.00;5.32;;;11.40;80.40;;;;;;4920940;29;20142;-86
2021/11/18 12:07:33;;;;;;;17.52;4.75;;;11.50;80.40;;;;;;4935888;29;20059;-85
2021/11/18 12:10:23;;;;;;;18.27;4.82;;;11.60;80.40;;;;;;4935532;29;20059;-86
2021/11/18 12:13:01;;;;;;;14.55;4.60;;;11.60;80.40;;;;;;4934020;29;20583;-85
2021/11/18 12:15:31;;;;;;;18.02;5.35;;;11.70;80.30;;;;;;4936980;29;20465;-85
2021/11/18 12:18:05;;;;;;;15.65;4.32;;;11.80;80.30;;;;;;4934006;29;20111;-85
2021/11/18 12:20:38;;;;;;;14.35;4.60;;;11.80;80.20;;;;;;4934365;29;20055;-85
2021/11/18 12:23:11;;;;;;;22.27;4.85;;;11.90;80.10;;;;;;4935188;29;20532;-85
2021/11/18 12:25:46;;;;;;;21.38;5.38;;;11.90;80.00;;;;;;4934910;29;20047;-86
2021/11/18 12:28:13;;;;;;;18.90;5.10;;;11.90;79.80;;;;;;4920046;29;20048;-85
2021/11/18 12:30:43;;;;;;;23.35;5.35;;;12.00;79.70;;;;;;4932804;29;20563;-85
2021/11/18 12:33:17;;;;;;;14.88;4.50;;;12.10;79.60;;;;;;4933516;29;20056;-85
2021/11/18 12:36:10;;;;;;;17.05;4.93;;;12.10;79.50;;;;;;4935011;29;20489;-85
2021/11/18 12:38:54;;;;;;;17.88;4.90;;;12.10;79.30;;;;;;4934679;29;20060;-86
2021/11/18 12:41:48;;;;;;;14.80;4.50;;;12.10;79.20;;;;;;4934559;29;20103;-85
2021/11/18 12:44:33;;;;;;;17.05;4.53;;;12.10;79.10;;;;;;4932495;29;20056;-86
2021/11/18 12:47:08;;;;;;;17.20;5.22;;;12.10;79.00;;;;;;4934860;29;20095;-86
2021/11/18 12:49:38;;;;;;;16.13;5.05;;;12.20;78.90;;;;;;4934605;29;20067;-85
2021/11/18 12:52:13;;;;;;;19.48;5.22;;;12.20;78.90;;;;;;4934606;29;20059;-86
2021/11/18 12:55:02;;;;;;;20.10;5.13;;;12.20;78.90;;;;;;4932151;29;20508;-85
2021/11/18 12:57:36;;;;;;;23.83;5.13;;;12.20;78.80;;;;;;4935146;29;20103;-85
2021/11/18 13:00:16;;;;;;;18.92;5.57;;;12.20;78.80;;;;;;4934160;29;20059;-85
2021/11/18 13:03:00;;;;;;;24.45;5.30;;;12.20;78.80;;;;;;4927015;29;20528;-87
2021/11/18 13:05:30;;;;;;;19.13;5.60;;;12.20;78.80;;;;;;4924959;29;20055;-86
2021/11/18 13:08:08;;;;;;;19.02;4.72;;;12.20;78.90;;;;;;4929449;29;20312;-86
2021/11/18 13:10:46;;;;;;;18.45;5.03;;;12.20;78.90;;;;;;4930931;29;20052;-86
2021/11/18 13:13:33;;;;;;;16.52;4.90;;;12.30;78.90;;;;;;4917080;29;20051;-86